Denver, Colorado
Traffic Map
Current Weather Conditions
Denver, Colorado
Few Clouds
Few Clouds
13°
Feels Like: 13°
Wind Chill: 13° Ceiling: Unl
Heat Index: 13° Visibility: 10mi
Dew Point: Wind: 10mph
Humidity: 45% Direction: 180° (S)
Pressure: 30.39in Gusts: 0mph
Raw Report DataKBKF 290658Z 18009KT 10SM FEW220 13/01 A3039 RMK AO2A SLP226 T01300012 402770098
Traffic Incident Summary
Active as of:
Severity:
Category:
InformationThere was an issue retrieving the traffic information for this location. Please try a different location or try again shortly.
Advertisements
Track Severe Weather on mobile